Time;durP1;ratioP1;P1;durP2;ratioP2;P2;SDS_P1;SDS_P2;PMS_P1;PMS_P2;Temp;Humidity;BMP_temperature;BMP_pressure;BME280_temperature;BME280_humidity;BME280_pressure;Samples;Min_cycle;Max_cycle;Signal;HPM_P1;HPM_P2
2022/07/16 00:02:56;;;;;;;2.17;0.93;;;18.40;69.50;;;;;;5068314;28;20043;-61
2022/07/16 00:05:22;;;;;;;1.40;0.98;;;18.40;69.40;;;;;;5067921;28;20021;-62
2022/07/16 00:07:48;;;;;;;1.73;1.10;;;18.40;69.40;;;;;;5068614;28;20020;-61
2022/07/16 00:10:13;;;;;;;1.75;0.88;;;18.40;69.60;;;;;;5067583;28;20365;-61
2022/07/16 00:12:39;;;;;;;2.40;1.17;;;18.40;69.70;;;;;;5066454;28;20506;-61
2022/07/16 00:15:05;;;;;;;1.67;0.88;;;18.40;69.90;;;;;;5067052;28;20051;-61
2022/07/16 00:17:31;;;;;;;3.15;1.00;;;18.40;69.90;;;;;;5069030;28;20050;-61
2022/07/16 00:19:57;;;;;;;2.17;1.10;;;18.40;69.90;;;;;;5065341;28;20427;-61
2022/07/16 00:22:22;;;;;;;1.75;0.98;;;18.40;69.80;;;;;;5069209;28;20487;-61
2022/07/16 00:24:48;;;;;;;1.70;0.90;;;18.40;69.90;;;;;;5067977;28;20465;-61
2022/07/16 00:27:14;;;;;;;1.23;0.98;;;18.40;69.70;;;;;;5067733;28;20158;-62
2022/07/16 00:29:39;;;;;;;2.42;0.93;;;18.40;69.70;;;;;;5063631;28;20077;-61
2022/07/16 00:32:05;;;;;;;1.50;0.88;;;18.40;69.60;;;;;;5067658;28;20035;-61
2022/07/16 00:34:31;;;;;;;1.80;0.98;;;18.40;69.60;;;;;;5068065;28;20420;-61
2022/07/16 00:36:56;;;;;;;1.55;0.90;;;18.40;69.60;;;;;;5065196;28;20035;-61
2022/07/16 00:39:22;;;;;;;1.70;0.85;;;18.40;69.60;;;;;;5066345;28;20055;-61
2022/07/16 00:41:48;;;;;;;1.70;1.00;;;18.40;69.60;;;;;;5067878;28;20529;-61
2022/07/16 00:44:17;;;;;;;1.73;0.80;;;18.40;69.70;;;;;;5068667;28;20082;-61
2022/07/16 00:46:44;;;;;;;3.47;0.90;;;18.40;69.80;;;;;;5079046;28;20430;-61
2022/07/16 00:49:12;;;;;;;3.00;1.13;;;18.40;69.90;;;;;;5066954;28;20259;-61
2022/07/16 00:51:46;;;;;;;1.63;0.90;;;18.40;70.60;;;;;;5067713;28;20021;-61
2022/07/16 00:54:12;;;;;;;1.95;0.90;;;18.40;70.00;;;;;;5066483;28;20033;-61
2022/07/16 00:56:38;;;;;;;1.95;1.02;;;18.40;70.10;;;;;;5065562;28;20098;-61
2022/07/16 00:59:03;;;;;;;2.10;0.95;;;18.40;70.20;;;;;;5065533;28;20021;-61
2022/07/16 01:01:29;;;;;;;1.83;0.88;;;18.40;70.30;;;;;;5065577;28;20025;-61
2022/07/16 01:03:55;;;;;;;2.65;1.10;;;18.40;70.40;;;;;;5066873;28;20068;-61
2022/07/16 01:06:22;;;;;;;2.35;1.00;;;18.40;70.50;;;;;;5066867;28;20119;-61
2022/07/16 01:08:49;;;;;;;1.58;0.93;;;18.30;70.70;;;;;;5066278;28;20062;-61
2022/07/16 01:11:20;;;;;;;2.10;0.90;;;18.30;70.80;;;;;;5068112;28;20012;-62
2022/07/16 01:13:48;;;;;;;2.65;0.90;;;18.30;71.40;;;;;;5065165;28;20024;-61
2022/07/16 01:16:14;;;;;;;3.33;1.20;;;18.20;71.80;;;;;;5066460;28;20396;-61
2022/07/16 01:18:42;;;;;;;2.03;1.33;;;18.10;72.00;;;;;;5063135;28;20028;-61
2022/07/16 01:21:07;;;;;;;2.38;1.13;;;18.10;72.10;;;;;;5067965;28;20028;-61
2022/07/16 01:23:33;;;;;;;1.70;0.82;;;18.10;72.30;;;;;;5066845;28;20039;-61
2022/07/16 01:25:59;;;;;;;2.28;0.88;;;18.10;72.30;;;;;;5066561;28;20473;-61
2022/07/16 01:28:24;;;;;;;2.00;0.70;;;18.10;72.20;;;;;;5063697;28;20029;-61
2022/07/16 01:30:50;;;;;;;1.92;1.00;;;18.20;72.80;;;;;;5068082;28;20036;-61
2022/07/16 01:33:24;;;;;;;1.45;0.80;;;18.20;72.00;;;;;;5065490;28;20440;-61
2022/07/16 01:35:50;;;;;;;3.17;1.00;;;18.20;71.90;;;;;;5065056;28;20024;-61
2022/07/16 01:38:16;;;;;;;3.13;1.00;;;18.20;72.00;;;;;;5066026;28;20036;-61
2022/07/16 01:40:42;;;;;;;2.25;1.00;;;18.20;72.20;;;;;;5068279;28;20396;-61
2022/07/16 01:43:15;;;;;;;1.90;0.85;;;18.20;72.30;;;;;;5066378;28;20033;-61
2022/07/16 01:45:41;;;;;;;3.05;0.95;;;18.20;72.30;;;;;;5066323;28;20012;-61
2022/07/16 01:48:07;;;;;;;2.20;0.70;;;18.20;72.50;;;;;;5062996;28;20443;-61
2022/07/16 01:50:32;;;;;;;1.98;1.05;;;18.10;72.50;;;;;;5068040;28;20450;-61
2022/07/16 01:52:58;;;;;;;1.83;0.80;;;18.10;72.70;;;;;;5066049;28;20035;-61
2022/07/16 01:55:23;;;;;;;1.38;0.80;;;18.20;72.90;;;;;;5066349;28;20427;-61
2022/07/16 01:57:49;;;;;;;2.67;0.80;;;18.10;72.90;;;;;;5063002;28;20068;-61
2022/07/16 02:00:14;;;;;;;3.08;0.98;;;18.10;73.00;;;;;;5049599;28;20040;-61
2022/07/16 02:02:40;;;;;;;1.77;0.90;;;18.10;73.10;;;;;;5064137;28;20027;-61
2022/07/16 02:05:06;;;;;;;1.65;0.80;;;18.10;73.20;;;;;;5068307;28;20020;-61
2022/07/16 02:07:31;;;;;;;1.52;0.90;;;18.10;73.20;;;;;;5065794;28;20397;-61
2022/07/16 02:09:57;;;;;;;3.70;1.10;;;18.10;73.30;;;;;;5066225;28;20427;-61
2022/07/16 02:12:22;;;;;;;3.30;1.00;;;18.10;73.50;;;;;;5067631;28;20068;-61
2022/07/16 02:14:48;;;;;;;3.05;1.20;;;18.10;73.60;;;;;;5071170;28;20099;-61
2022/07/16 02:17:13;;;;;;;2.85;1.17;;;18.10;73.80;;;;;;5065912;28;20037;-61
2022/07/16 02:19:39;;;;;;;2.35;1.10;;;18.10;74.10;;;;;;5070784;28;20032;-61
2022/07/16 02:22:06;;;;;;;2.35;1.17;;;18.00;74.20;;;;;;5069531;28;20373;-61
2022/07/16 02:24:32;;;;;;;2.13;1.00;;;18.10;74.30;;;;;;5070593;28;20016;-61
2022/07/16 02:26:57;;;;;;;1.95;1.10;;;18.10;74.30;;;;;;5067978;28;20025;-61
2022/07/16 02:29:23;;;;;;;2.67;1.30;;;18.10;74.30;;;;;;5069012;28;20403;-61
2022/07/16 02:31:49;;;;;;;1.83;1.20;;;18.00;74.40;;;;;;5069396;28;20032;-61
2022/07/16 02:34:14;;;;;;;1.98;0.90;;;18.00;74.40;;;;;;5071651;28;20164;-61
2022/07/16 02:36:40;;;;;;;2.17;1.00;;;18.00;74.50;;;;;;5056963;28;20142;-61
2022/07/16 02:39:05;;;;;;;2.30;1.17;;;18.00;74.60;;;;;;5070497;28;20028;-61
2022/07/16 02:41:31;;;;;;;1.40;0.95;;;18.00;74.80;;;;;;5083427;28;20587;-60
2022/07/16 02:43:57;;;;;;;1.92;1.20;;;18.00;74.80;;;;;;5068789;28;20040;-61
2022/07/16 02:46:22;;;;;;;4.30;1.77;;;18.00;74.80;;;;;;5064911;28;20033;-61
2022/07/16 02:48:48;;;;;;;2.17;1.13;;;18.00;74.90;;;;;;5070341;28;20420;-61
2022/07/16 02:51:13;;;;;;;3.13;1.33;;;18.00;75.00;;;;;;5070165;28;20029;-61
2022/07/16 02:53:40;;;;;;;2.40;1.10;;;17.90;75.10;;;;;;5068979;28;20060;-61
2022/07/16 02:56:05;;;;;;;2.65;1.40;;;18.00;75.00;;;;;;5068759;28;20035;-61
2022/07/16 02:58:31;;;;;;;3.25;1.20;;;17.90;75.10;;;;;;5066518;28;20024;-61
2022/07/16 03:00:56;;;;;;;2.90;1.50;;;18.00;75.20;;;;;;5067171;28;20032;-60
2022/07/16 03:03:22;;;;;;;2.40;1.10;;;18.00;75.80;;;;;;5069044;28;20028;-61
2022/07/16 03:05:47;;;;;;;2.25;1.30;;;18.00;75.20;;;;;;5069169;28;20047;-61
2022/07/16 03:08:13;;;;;;;4.78;1.40;;;18.00;75.20;;;;;;5066782;28;20023;-61
2022/07/16 03:10:39;;;;;;;2.22;1.40;;;18.00;75.30;;;;;;5069812;28;20376;-61
2022/07/16 03:13:04;;;;;;;3.13;1.27;;;18.00;75.40;;;;;;5067868;28;20102;-61
2022/07/16 03:15:30;;;;;;;2.60;1.60;;;18.00;75.50;;;;;;5067022;28;20027;-61
2022/07/16 03:17:55;;;;;;;2.65;1.20;;;18.00;75.60;;;;;;5068077;28;20025;-61
2022/07/16 03:20:21;;;;;;;3.58;1.63;;;18.00;75.80;;;;;;5069340;28;20060;-61
2022/07/16 03:22:47;;;;;;;3.67;1.80;;;18.00;76.00;;;;;;5068888;28;20060;-61
2022/07/16 03:25:15;;;;;;;2.78;1.90;;;18.00;76.30;;;;;;5068446;28;20549;-61
2022/07/16 03:27:40;;;;;;;1.90;1.60;;;18.00;76.50;;;;;;5067140;28;20480;-61
2022/07/16 03:30:07;;;;;;;3.20;1.63;;;18.00;76.60;;;;;;5069262;28;20032;-60
2022/07/16 03:32:32;;;;;;;1.55;1.10;;;17.90;76.50;;;;;;5067523;28;20075;-61
2022/07/16 03:34:58;;;;;;;3.17;1.67;;;17.90;76.60;;;;;;5066806;28;20078;-61
2022/07/16 03:37:23;;;;;;;4.40;2.17;;;17.90;76.80;;;;;;5066789;28;20024;-61
2022/07/16 03:39:49;;;;;;;2.38;1.75;;;17.90;76.90;;;;;;5069997;28;20021;-61
2022/07/16 03:42:14;;;;;;;2.15;1.38;;;17.80;77.00;;;;;;5066711;28;20039;-61
2022/07/16 03:44:40;;;;;;;3.17;1.67;;;17.80;77.10;;;;;;5068860;28;20021;-60
2022/07/16 03:47:05;;;;;;;3.05;1.80;;;17.80;77.20;;;;;;5066369;28;20420;-61
2022/07/16 03:49:31;;;;;;;4.13;1.83;;;17.80;77.60;;;;;;5067165;28;20024;-61
2022/07/16 03:51:57;;;;;;;2.53;1.50;;;17.80;77.70;;;;;;5066423;28;20493;-60
2022/07/16 03:54:22;;;;;;;2.85;2.08;;;17.80;78.00;;;;;;5068649;28;20030;-61
2022/07/16 03:56:48;;;;;;;4.38;2.10;;;17.80;78.30;;;;;;5067628;28;20056;-61
2022/07/16 03:59:13;;;;;;;3.30;1.52;;;17.80;78.60;;;;;;5066047;28;20036;-61
2022/07/16 04:01:39;;;;;;;2.92;1.95;;;17.80;78.80;;;;;;5068803;28;20452;-61
2022/07/16 04:04:05;;;;;;;3.72;1.85;;;17.70;78.90;;;;;;5067237;28;20029;-61
2022/07/16 04:06:30;;;;;;;2.80;1.80;;;17.70;79.20;;;;;;5067448;28;20492;-61
2022/07/16 04:08:56;;;;;;;4.32;2.20;;;17.80;79.40;;;;;;5067670;28;20132;-61
2022/07/16 04:11:21;;;;;;;3.45;2.38;;;17.70;79.60;;;;;;5067246;28;20017;-61
2022/07/16 04:13:47;;;;;;;3.65;2.45;;;17.80;80.20;;;;;;5067668;28;20111;-61
2022/07/16 04:16:12;;;;;;;3.78;2.05;;;17.70;80.70;;;;;;5067121;28;20052;-61
2022/07/16 04:18:38;;;;;;;5.57;3.00;;;17.70;80.90;;;;;;5065882;28;20517;-61
2022/07/16 04:21:05;;;;;;;4.45;2.42;;;17.70;81.30;;;;;;5068745;28;20066;-61
2022/07/16 04:23:31;;;;;;;5.28;2.30;;;17.70;81.60;;;;;;5064675;28;20388;-60
2022/07/16 04:25:57;;;;;;;4.32;2.25;;;17.70;81.70;;;;;;5066776;28;20032;-60
2022/07/16 04:28:22;;;;;;;4.60;2.30;;;17.70;81.90;;;;;;5065471;28;20024;-61
2022/07/16 04:30:48;;;;;;;4.65;2.63;;;17.70;82.20;;;;;;5067566;28;20095;-61
2022/07/16 04:33:14;;;;;;;4.43;2.40;;;17.60;82.40;;;;;;5065530;28;20032;-61
2022/07/16 04:35:39;;;;;;;4.13;2.40;;;17.60;82.60;;;;;;5067707;28;20020;-61
2022/07/16 04:38:05;;;;;;;5.03;2.42;;;17.60;82.70;;;;;;5067562;28;20024;-62
2022/07/16 04:40:31;;;;;;;2.97;2.22;;;17.60;82.90;;;;;;5066705;28;20024;-61
2022/07/16 04:42:56;;;;;;;4.07;2.40;;;17.60;83.10;;;;;;5065603;28;20075;-60
2022/07/16 04:45:22;;;;;;;3.72;2.08;;;17.60;83.20;;;;;;5066956;28;20108;-61
2022/07/16 04:47:47;;;;;;;3.90;2.30;;;17.60;83.30;;;;;;5066917;28;20016;-61
2022/07/16 04:50:13;;;;;;;3.55;2.00;;;17.60;83.50;;;;;;5066520;28;20029;-60
2022/07/16 04:52:38;;;;;;;4.53;2.30;;;17.60;83.60;;;;;;5067337;28;20028;-61
2022/07/16 04:55:05;;;;;;;3.60;2.60;;;17.60;83.90;;;;;;5065143;28;20112;-61
2022/07/16 04:57:30;;;;;;;3.60;2.20;;;17.60;84.30;;;;;;5056216;28;20044;-61
2022/07/16 04:59:57;;;;;;;3.97;2.13;;;17.60;84.60;;;;;;5053180;28;20028;-60
2022/07/16 05:05:07;;;;;;;2.97;1.80;;;17.60;85.10;;;;;;5053491;28;20159;-61
2022/07/16 05:07:34;;;;;;;3.63;1.98;;;17.70;85.30;;;;;;5064106;28;20044;-61
2022/07/16 05:09:59;;;;;;;2.38;1.50;;;17.70;85.60;;;;;;5052854;28;20018;-61
2022/07/16 05:12:25;;;;;;;1.90;1.55;;;17.80;85.80;;;;;;5059985;28;20400;-61
2022/07/16 05:14:51;;;;;;;3.72;1.30;;;17.80;86.00;;;;;;5058594;28;20036;-60
2022/07/16 05:17:16;;;;;;;2.20;1.17;;;17.90;86.10;;;;;;5070837;28;20033;-61
2022/07/16 05:19:41;;;;;;;2.03;1.20;;;17.90;86.20;;;;;;5067577;28;20025;-60
2022/07/16 05:22:07;;;;;;;4.82;1.35;;;17.90;86.40;;;;;;5052249;28;20044;-61
2022/07/16 05:24:33;;;;;;;2.13;1.00;;;18.00;86.50;;;;;;5052408;28;20029;-60
2022/07/16 05:26:58;;;;;;;1.58;1.10;;;18.00;86.60;;;;;;5052419;28;20032;-61
2022/07/16 05:29:24;;;;;;;2.13;1.25;;;18.00;86.80;;;;;;5054571;28;20465;-60
2022/07/16 05:31:50;;;;;;;4.20;1.10;;;18.00;86.90;;;;;;5069377;28;20017;-61
2022/07/16 05:34:15;;;;;;;2.47;0.70;;;18.10;87.10;;;;;;5069861;28;20485;-61
2022/07/16 05:36:41;;;;;;;2.95;0.90;;;18.10;87.20;;;;;;5075912;28;20103;-61
2022/07/16 05:39:06;;;;;;;2.78;0.93;;;18.10;87.30;;;;;;5057701;28;20104;-61
2022/07/16 05:41:32;;;;;;;1.70;0.88;;;18.10;87.50;;;;;;5069256;28;20039;-61
2022/07/16 05:43:57;;;;;;;3.30;0.82;;;18.20;87.70;;;;;;5070701;28;20048;-61
2022/07/16 05:46:23;;;;;;;4.47;1.10;;;18.20;88.10;;;;;;5069829;28;20028;-61
2022/07/16 05:48:49;;;;;;;3.22;0.88;;;18.20;89.20;;;;;;5071352;28;20015;-61
2022/07/16 05:51:15;;;;;;;4.35;1.05;;;18.20;89.00;;;;;;5072512;28;20037;-61
2022/07/16 05:53:40;;;;;;;2.92;0.90;;;18.20;89.00;;;;;;5071419;28;20089;-61
2022/07/16 05:56:06;;;;;;;2.65;0.90;;;18.20;89.20;;;;;;5071838;28;20099;-61
2022/07/16 05:58:31;;;;;;;1.27;0.60;;;18.30;89.30;;;;;;5068583;28;20086;-61
2022/07/16 06:00:57;;;;;;;1.73;0.60;;;18.30;89.20;;;;;;5055826;28;20037;-61
2022/07/16 06:03:22;;;;;;;2.13;0.80;;;18.30;89.40;;;;;;5055796;28;20033;-60
2022/07/16 06:05:48;;;;;;;2.03;0.40;;;18.30;89.60;;;;;;5067595;28;20169;-62
2022/07/16 06:08:14;;;;;;;1.92;0.52;;;18.30;89.40;;;;;;5071165;28;20029;-61
2022/07/16 06:10:39;;;;;;;1.92;0.80;;;18.30;89.50;;;;;;5072315;28;20024;-61
2022/07/16 06:13:05;;;;;;;2.30;0.60;;;18.40;89.30;;;;;;5070734;28;20388;-61
2022/07/16 06:15:30;;;;;;;3.15;0.50;;;18.30;88.80;;;;;;5055082;28;20102;-61
2022/07/16 06:17:56;;;;;;;2.17;1.10;;;18.40;88.70;;;;;;5070359;28;20495;-60
2022/07/16 06:20:22;;;;;;;2.20;0.70;;;18.40;88.60;;;;;;5066333;28;20032;-61
2022/07/16 06:22:48;;;;;;;2.15;0.60;;;18.40;88.40;;;;;;5069997;28;20476;-62
2022/07/16 06:25:15;;;;;;;2.55;0.90;;;18.50;88.20;;;;;;5065489;28;20023;-61
2022/07/16 06:27:44;;;;;;;2.05;0.70;;;18.50;88.00;;;;;;5069514;28;20426;-61
2022/07/16 06:30:12;;;;;;;2.10;0.70;;;18.50;87.90;;;;;;5065844;28;20028;-61
2022/07/16 06:32:55;;;;;;;;;;;;;;;;;;;;;
2022/07/16 06:35:21;;;;;;;3.55;0.63;;;18.60;87.50;;;;;;5068961;28;20021;-61
2022/07/16 06:37:47;;;;;;;1.58;0.50;;;18.60;87.30;;;;;;5065018;28;20112;-61
2022/07/16 06:40:13;;;;;;;1.73;0.68;;;18.70;87.00;;;;;;5068803;28;20104;-61
2022/07/16 06:42:38;;;;;;;2.10;0.60;;;18.80;86.60;;;;;;5064961;28;20361;-61
2022/07/16 06:45:04;;;;;;;1.33;0.40;;;18.80;86.20;;;;;;5074243;28;20039;-61
2022/07/16 06:47:30;;;;;;;1.92;0.55;;;18.80;86.00;;;;;;5074388;28;20021;-61
2022/07/16 06:49:55;;;;;;;1.98;0.50;;;18.90;85.40;;;;;;5073577;28;20032;-61
2022/07/16 06:52:21;;;;;;;0.85;0.52;;;18.90;84.70;;;;;;5065365;28;20059;-61
2022/07/16 06:54:46;;;;;;;0.82;0.38;;;18.90;84.30;;;;;;5070069;28;20393;-60
2022/07/16 06:57:12;;;;;;;3.58;0.60;;;19.00;84.20;;;;;;5070563;28;20049;-61
2022/07/16 06:59:37;;;;;;;4.40;0.60;;;19.00;83.70;;;;;;5073429;28;20111;-61
2022/07/16 07:02:03;;;;;;;3.35;0.60;;;19.00;83.50;;;;;;5069037;28;20025;-61
2022/07/16 07:04:28;;;;;;;1.77;0.60;;;19.10;83.30;;;;;;5072881;28;20438;-61
2022/07/16 07:06:54;;;;;;;1.55;0.73;;;19.10;82.70;;;;;;5062448;28;20041;-61
2022/07/16 07:09:19;;;;;;;2.30;0.63;;;19.20;82.50;;;;;;5061773;28;20091;-61
2022/07/16 07:11:45;;;;;;;1.45;0.40;;;19.20;82.10;;;;;;5062984;28;20148;-61
2022/07/16 07:14:11;;;;;;;4.75;0.95;;;19.30;81.90;;;;;;5070182;28;20073;-61
2022/07/16 07:16:36;;;;;;;2.47;0.50;;;19.30;81.30;;;;;;5071002;28;20107;-61
2022/07/16 07:19:03;;;;;;;2.15;0.50;;;19.30;80.80;;;;;;5071426;28;20162;-61
2022/07/16 07:21:28;;;;;;;2.55;0.63;;;19.40;80.50;;;;;;5068160;28;20213;-61
2022/07/16 07:23:54;;;;;;;2.45;0.60;;;19.40;79.80;;;;;;5087365;28;20423;-61
2022/07/16 07:26:20;;;;;;;2.15;0.43;;;19.40;79.30;;;;;;5070741;28;20198;-61
2022/07/16 07:28:45;;;;;;;4.25;0.60;;;19.50;78.80;;;;;;5063707;28;20393;-61
2022/07/16 07:31:11;;;;;;;1.23;0.57;;;19.50;77.70;;;;;;5069717;28;20029;-60
2022/07/16 07:33:38;;;;;;;2.83;0.70;;;19.60;77.50;;;;;;5065265;28;20043;-60
2022/07/16 07:36:39;;;;;;;1.92;0.60;;;19.60;77.30;;;;;;5061360;28;20032;-61
2022/07/16 07:39:04;;;;;;;0.70;0.50;;;19.70;77.30;;;;;;5070882;28;20024;-61
2022/07/16 07:41:30;;;;;;;1.73;0.40;;;19.90;77.40;;;;;;5064219;28;20382;-62
2022/07/16 07:43:55;;;;;;;2.35;0.57;;;19.90;76.70;;;;;;5073160;28;20024;-61
2022/07/16 07:46:21;;;;;;;1.73;0.50;;;20.00;75.60;;;;;;5073428;28;20025;-62
2022/07/16 07:48:47;;;;;;;2.05;0.40;;;20.10;75.50;;;;;;5073137;28;20021;-61
2022/07/16 07:51:13;;;;;;;2.20;0.50;;;20.20;75.40;;;;;;5073492;28;20036;-61
2022/07/16 07:53:38;;;;;;;2.83;0.50;;;20.20;75.20;;;;;;5070677;28;20035;-61
2022/07/16 07:56:18;;;;;;;4.03;0.65;;;20.40;74.50;;;;;;5071442;28;20035;-61
2022/07/16 07:58:43;;;;;;;;;;;20.50;73.30;;;;;;5070587;28;20143;-61
2022/07/16 08:01:09;;;;;;;1.88;0.40;;;20.40;73.00;;;;;;5072035;28;20335;-61
2022/07/16 08:03:35;;;;;;;3.08;0.40;;;20.50;73.20;;;;;;5072481;28;20020;-61
2022/07/16 08:06:00;;;;;;;2.97;0.40;;;20.60;72.40;;;;;;5063327;28;20130;-61
2022/07/16 08:08:27;;;;;;;3.78;0.80;;;20.70;71.90;;;;;;5069706;28;20120;-61
2022/07/16 08:14:10;;;;;;;1.73;0.43;;;20.70;71.00;;;;;;5052770;28;20048;-61
2022/07/16 08:16:37;;;;;;;4.43;0.60;;;20.70;70.80;;;;;;5054914;28;20108;-62
2022/07/16 08:19:02;;;;;;;2.22;0.50;;;20.70;69.60;;;;;;5068568;28;20399;-61
2022/07/16 08:21:28;;;;;;;3.08;0.60;;;20.70;69.20;;;;;;5068947;28;20119;-62
2022/07/16 08:26:38;;;;;;;2.05;0.50;;;20.80;69.40;;;;;;5068357;28;20032;-61
2022/07/16 08:29:03;;;;;;;1.77;0.50;;;20.90;67.60;;;;;;5071706;28;20020;-61
2022/07/16 08:31:29;;;;;;;2.17;0.43;;;20.90;67.10;;;;;;5068637;28;20059;-61
2022/07/16 08:33:54;;;;;;;1.77;0.55;;;21.00;66.80;;;;;;5070788;28;20025;-61
2022/07/16 08:36:20;;;;;;;1.70;0.50;;;21.00;65.80;;;;;;5070363;28;20017;-61
2022/07/16 08:38:46;;;;;;;2.85;0.40;;;21.10;65.90;;;;;;5072782;28;20028;-62
2022/07/16 08:41:12;;;;;;;2.15;0.40;;;21.10;65.70;;;;;;5070445;28;20031;-61
2022/07/16 08:44:02;;;;;;;1.50;0.40;;;21.20;65.60;;;;;;5070672;28;20495;-61
2022/07/16 08:46:54;;;;;;;1.08;0.30;;;21.20;65.40;;;;;;5075626;28;20029;-61
2022/07/16 08:49:20;;;;;;;2.05;0.50;;;21.40;65.30;;;;;;5066974;28;20088;-61
2022/07/16 08:51:47;;;;;;;1.73;0.40;;;21.50;64.20;;;;;;5067705;28;20168;-61
2022/07/16 08:57:15;;;;;;;2.47;0.55;;;21.60;63.80;;;;;;5064089;28;20055;-61
2022/07/16 09:02:43;;;;;;;2.58;0.73;;;21.80;63.90;;;;;;5060535;28;20119;-62
2022/07/16 09:05:09;;;;;;;1.42;0.50;;;21.90;63.60;;;;;;5066788;28;20017;-62
2022/07/16 09:07:35;;;;;;;0.98;0.40;;;22.00;62.50;;;;;;5071746;28;20027;-62
2022/07/16 09:10:01;;;;;;;2.22;0.50;;;22.10;61.80;;;;;;5064033;28;20104;-61
2022/07/16 09:12:34;;;;;;;1.15;0.35;;;22.10;61.50;;;;;;5053632;28;20400;-61
2022/07/16 09:15:20;;;;;;;1.67;0.32;;;22.20;61.70;;;;;;5058156;28;20633;-61
2022/07/16 09:18:05;;;;;;;2.88;0.40;;;22.30;61.80;;;;;;5071770;28;20040;-61
2022/07/16 09:20:31;;;;;;;1.52;0.50;;;22.30;61.30;;;;;;5072666;28;20077;-61
2022/07/16 09:23:04;;;;;;;2.40;0.50;;;22.40;60.60;;;;;;5075653;28;20024;-61
2022/07/16 09:25:30;;;;;;;1.70;0.50;;;22.40;60.40;;;;;;5076254;28;20074;-61
2022/07/16 09:27:59;;;;;;;1.20;0.40;;;22.30;60.70;;;;;;5072815;28;20028;-61
2022/07/16 09:30:26;;;;;;;0.82;0.30;;;22.40;60.70;;;;;;5056428;28;20029;-61
2022/07/16 09:33:02;;;;;;;1.65;0.40;;;22.40;60.70;;;;;;5071577;28;20493;-61
2022/07/16 09:38:46;;;;;;;1.17;0.40;;;22.50;60.80;;;;;;5054006;28;20020;-61
2022/07/16 09:41:14;;;;;;;2.58;0.47;;;22.40;60.50;;;;;;5061333;28;20431;-61
2022/07/16 09:43:42;;;;;;;1.33;0.40;;;22.40;60.30;;;;;;5075733;28;20487;-61
2022/07/16 09:46:08;;;;;;;1.23;0.40;;;22.30;60.30;;;;;;5074698;28;20060;-61
2022/07/16 09:51:28;;;;;;;1.95;0.40;;;22.40;59.90;;;;;;5071054;28;20043;-61
2022/07/16 09:53:55;;;;;;;2.38;0.43;;;22.30;59.80;;;;;;5069034;28;20040;-61
2022/07/16 09:56:35;;;;;;;1.35;0.30;;;22.30;59.60;;;;;;5073616;28;20025;-61
2022/07/16 10:02:25;;;;;;;0.88;0.30;;;22.40;58.50;;;;;;4981800;28;20022;-61
2022/07/16 10:04:51;;;;;;;1.83;0.60;;;22.40;58.20;;;;;;5024969;28;20030;-62
2022/07/16 10:07:17;;;;;;;3.08;0.70;;;22.40;58.20;;;;;;5066320;28;20289;-61
2022/07/16 10:09:44;;;;;;;1.13;0.35;;;22.40;58.00;;;;;;5071557;28;20089;-61
2022/07/16 10:12:15;;;;;;;1.98;0.50;;;22.60;58.10;;;;;;5072473;28;20013;-61
2022/07/16 10:17:48;;;;;;;0.80;0.30;;;22.90;57.70;;;;;;5071411;28;20086;-62
2022/07/16 10:20:18;;;;;;;2.38;0.50;;;23.00;57.50;;;;;;5073666;28;20024;-61
2022/07/16 10:22:47;;;;;;;0.68;0.30;;;23.00;56.40;;;;;;5074237;28;20041;-62
2022/07/16 10:25:30;;;;;;;1.95;0.50;;;23.00;57.00;;;;;;5085701;28;20022;-61
2022/07/16 10:27:56;;;;;;;1.33;0.40;;;23.00;56.10;;;;;;5069124;28;20024;-61
2022/07/16 10:31:09;;;;;;;1.38;0.40;;;23.00;56.20;;;;;;5074109;28;20029;-62
2022/07/16 10:33:35;;;;;;;2.33;0.40;;;23.10;55.90;;;;;;5062834;28;20040;-61
2022/07/16 10:36:05;;;;;;;2.60;0.40;;;23.20;55.90;;;;;;5073617;28;20029;-61
2022/07/16 10:38:30;;;;;;;1.27;0.30;;;23.30;55.30;;;;;;5074937;28;20494;-62
2022/07/16 10:41:15;;;;;;;1.60;0.40;;;23.40;55.40;;;;;;5073347;28;20025;-62
2022/07/16 10:43:43;;;;;;;1.70;0.70;;;23.50;54.50;;;;;;5074377;28;20153;-61
2022/07/16 10:46:10;;;;;;;1.40;0.30;;;23.50;54.40;;;;;;5071672;28;20058;-61
2022/07/16 10:48:36;;;;;;;0.93;0.20;;;23.60;54.50;;;;;;5070295;28;20386;-62
2022/07/16 10:51:13;;;;;;;1.10;0.38;;;23.60;54.00;;;;;;5072771;28;20016;-62
2022/07/16 10:53:57;;;;;;;1.25;0.22;;;23.60;53.50;;;;;;5070434;28;20082;-61
2022/07/16 10:56:37;;;;;;;0.80;0.35;;;23.70;53.40;;;;;;5071157;28;20067;-61
2022/07/16 10:59:04;;;;;;;1.58;0.47;;;23.80;52.80;;;;;;5087709;28;20127;-62
2022/07/16 11:01:30;;;;;;;1.08;0.30;;;23.70;52.70;;;;;;5071517;28;20032;-61
2022/07/16 11:03:56;;;;;;;2.65;0.40;;;23.70;52.80;;;;;;5071535;28;20075;-61
2022/07/16 11:06:22;;;;;;;2.38;0.60;;;23.70;52.50;;;;;;5069060;28;20445;-61
2022/07/16 11:08:55;;;;;;;1.20;0.30;;;23.80;51.70;;;;;;5072455;28;20517;-61
2022/07/16 11:11:53;;;;;;;;;;;;;;;;;;;;;
2022/07/16 11:14:19;;;;;;;0.93;0.30;;;24.10;52.10;;;;;;5069136;28;20337;-61
2022/07/16 11:17:29;;;;;;;1.95;0.40;;;24.20;52.00;;;;;;5069462;28;20104;-62
2022/07/16 11:19:57;;;;;;;1.15;0.30;;;24.20;51.70;;;;;;5055619;28;20493;-61
2022/07/16 11:22:27;;;;;;;1.85;0.30;;;24.10;50.90;;;;;;5053701;28;20035;-61
2022/07/16 11:24:56;;;;;;;2.45;0.40;;;24.00;51.10;;;;;;5077204;28;20035;-61
2022/07/16 11:27:27;;;;;;;0.85;0.40;;;24.10;51.30;;;;;;5070737;28;20423;-61
2022/07/16 11:29:57;;;;;;;0.93;0.30;;;24.10;51.40;;;;;;5068660;28;20020;-61
2022/07/16 11:32:29;;;;;;;1.58;0.35;;;24.30;51.50;;;;;;5072150;28;20043;-61
2022/07/16 11:34:55;;;;;;;1.33;0.32;;;24.50;51.00;;;;;;5070040;28;20052;-61
2022/07/16 11:37:21;;;;;;;1.35;0.30;;;24.60;50.70;;;;;;5071208;28;20059;-62
2022/07/16 11:39:47;;;;;;;1.33;0.30;;;24.70;50.80;;;;;;5086225;28;20051;-61
2022/07/16 11:42:12;;;;;;;2.95;0.40;;;24.80;50.90;;;;;;5071200;28;20056;-61
2022/07/16 11:44:41;;;;;;;2.35;0.40;;;24.90;50.60;;;;;;5072504;28;20052;-61
2022/07/16 11:47:08;;;;;;;1.23;0.30;;;24.90;50.10;;;;;;5073166;28;20029;-62
2022/07/16 11:49:35;;;;;;;1.13;0.40;;;24.90;49.80;;;;;;5073438;28;20040;-62
2022/07/16 11:52:06;;;;;;;1.63;0.40;;;24.90;49.00;;;;;;5072790;28;20028;-62
2022/07/16 11:55:04;;;;;;;5.43;0.70;;;25.10;49.10;;;;;;5073530;28;20029;-61
2022/07/16 11:58:08;;;;;;;;;;;;;;;;;;;;;
2022/07/16 12:00:44;;;;;;;1.95;0.40;;;25.40;49.10;;;;;;5061234;28;20021;-61
2022/07/16 12:03:10;;;;;;;2.85;0.40;;;25.50;48.80;;;;;;5072791;28;20021;-62
2022/07/16 12:08:55;;;;;;;3.30;0.43;;;25.80;48.10;;;;;;5072741;28;20031;-61
2022/07/16 12:11:35;;;;;;;1.98;0.40;;;25.80;47.90;;;;;;5072578;28;20027;-61
2022/07/16 12:14:02;;;;;;;2.17;0.40;;;25.90;47.80;;;;;;5053128;28;20204;-62
2022/07/16 12:16:28;;;;;;;0.68;0.30;;;26.00;47.70;;;;;;5065746;28;20123;-62
2022/07/16 12:19:15;;;;;;;1.63;0.40;;;26.20;47.50;;;;;;5073096;28;20021;-61
2022/07/16 12:21:41;;;;;;;2.15;0.47;;;26.30;46.40;;;;;;5068521;28;20028;-62
2022/07/16 12:24:09;;;;;;;1.40;0.40;;;26.30;46.70;;;;;;5053263;28;20100;-61
2022/07/16 12:26:44;;;;;;;1.27;0.30;;;26.40;46.90;;;;;;5053385;28;20481;-62
2022/07/16 12:29:12;;;;;;;2.90;0.50;;;26.60;46.70;;;;;;5053054;28;20037;-62
2022/07/16 12:31:38;;;;;;;1.63;0.30;;;26.70;46.50;;;;;;5053036;28;20070;-62
2022/07/16 12:34:05;;;;;;;0.82;0.30;;;26.90;46.70;;;;;;5052962;28;20021;-62
2022/07/16 12:37:02;;;;;;;1.95;0.30;;;27.10;46.70;;;;;;5065996;28;20021;-62
2022/07/16 12:39:28;;;;;;;2.40;0.40;;;27.50;46.60;;;;;;5051821;28;20400;-62
2022/07/16 12:41:53;;;;;;;0.63;0.30;;;27.70;46.30;;;;;;5053124;28;20025;-62
2022/07/16 12:44:19;;;;;;;1.65;0.40;;;27.80;46.00;;;;;;5059110;28;20035;-62
2022/07/16 12:46:51;;;;;;;1.05;0.38;;;27.90;45.50;;;;;;5058948;28;20047;-62
2022/07/16 12:49:20;;;;;;;2.50;0.40;;;28.00;45.50;;;;;;5060429;28;20017;-62
2022/07/16 12:51:56;;;;;;;1.33;0.40;;;28.00;44.30;;;;;;5059009;28;20025;-61
2022/07/16 12:54:22;;;;;;;2.35;0.47;;;27.90;44.50;;;;;;5076113;28;20377;-62
2022/07/16 12:59:33;;;;;;;2.00;0.40;;;28.00;44.60;;;;;;5069720;28;20022;-62
2022/07/16 13:02:13;;;;;;;3.20;0.40;;;28.20;44.80;;;;;;5068120;28;20426;-62
2022/07/16 13:04:38;;;;;;;1.95;0.43;;;28.20;44.40;;;;;;5065255;28;20051;-62
2022/07/16 13:07:04;;;;;;;2.38;0.40;;;28.30;44.60;;;;;;5065810;28;20032;-62
2022/07/16 13:09:29;;;;;;;1.80;0.30;;;28.40;44.30;;;;;;5066932;28;20020;-61
2022/07/16 13:11:56;;;;;;;1.95;0.52;;;28.40;44.10;;;;;;5068065;28;20054;-64
2022/07/16 13:14:21;;;;;;;2.25;0.38;;;28.50;44.20;;;;;;5065757;28;20029;-62
2022/07/16 13:16:48;;;;;;;3.00;0.40;;;28.80;44.20;;;;;;5064423;28;20051;-62
2022/07/16 13:19:13;;;;;;;2.47;0.47;;;28.90;43.80;;;;;;5065056;28;20021;-62
2022/07/16 13:21:39;;;;;;;2.70;0.40;;;28.80;43.30;;;;;;5067238;28;20053;-62
2022/07/16 13:24:05;;;;;;;1.17;0.40;;;28.60;43.70;;;;;;5063202;28;20024;-62
2022/07/16 13:26:33;;;;;;;2.45;0.43;;;28.70;44.00;;;;;;5060723;28;20037;-61
2022/07/16 13:28:59;;;;;;;1.35;0.40;;;28.80;43.80;;;;;;5080042;28;20444;-61